sensor_id;sensor_type;location;lat;lon;timestamp;temperature;humidity
40848;DHT22;26570;50.962;5.340;2023-12-29T00:03:37;11.40;99.90
40848;DHT22;26570;50.962;5.340;2023-12-29T00:10:24;11.00;99.90
40848;DHT22;26570;50.962;5.340;2023-12-29T00:13:13;11.20;99.90
40848;DHT22;26570;50.962;5.340;2023-12-29T00:16:29;11.20;99.90
40848;DHT22;26570;50.962;5.340;2023-12-29T00:19:35;11.20;99.90
40848;DHT22;26570;50.962;5.340;2023-12-29T00:30:45;11.20;99.90
40848;DHT22;26570;50.962;5.340;2023-12-29T00:37:27;10.50;99.90
40848;DHT22;26570;50.962;5.340;2023-12-29T00:40:51;11.20;99.90
40848;DHT22;26570;50.962;5.340;2023-12-29T00:43:43;11.20;99.90
40848;DHT22;26570;50.962;5.340;2023-12-29T00:47:01;11.20;99.90
40848;DHT22;26570;50.962;5.340;2023-12-29T00:49:58;11.10;99.90
40848;DHT22;26570;50.962;5.340;2023-12-29T00:53:53;11.10;99.90
40848;DHT22;26570;50.962;5.340;2023-12-29T01:14:24;11.20;99.90
40848;DHT22;26570;50.962;5.340;2023-12-29T01:21:19;11.20;99.90
40848;DHT22;26570;50.962;5.340;2023-12-29T01:25:05;12.00;99.90
40848;DHT22;26570;50.962;5.340;2023-12-29T01:28:32;11.20;99.90
40848;DHT22;26570;50.962;5.340;2023-12-29T01:44:19;11.10;99.90
40848;DHT22;26570;50.962;5.340;2023-12-29T01:47:41;11.10;99.90
40848;DHT22;26570;50.962;5.340;2023-12-29T01:51:01;11.00;99.90
40848;DHT22;26570;50.962;5.340;2023-12-29T01:54:30;10.80;99.90
40848;DHT22;26570;50.962;5.340;2023-12-29T01:57:40;11.10;99.90
40848;DHT22;26570;50.962;5.340;2023-12-29T02:01:09;11.20;99.90
40848;DHT22;26570;50.962;5.340;2023-12-29T02:04:29;11.20;99.90
40848;DHT22;26570;50.962;5.340;2023-12-29T02:07:32;11.30;99.90
40848;DHT22;26570;50.962;5.340;2023-12-29T02:11:14;11.20;99.90
40848;DHT22;26570;50.962;5.340;2023-12-29T02:14:12;10.50;99.90
40848;DHT22;26570;50.962;5.340;2023-12-29T02:18:03;11.30;99.90
40848;DHT22;26570;50.962;5.340;2023-12-29T02:21:57;11.30;99.90
40848;DHT22;26570;50.962;5.340;2023-12-29T02:25:20;11.40;99.90
40848;DHT22;26570;50.962;5.340;2023-12-29T02:28:41;11.10;99.90
40848;DHT22;26570;50.962;5.340;2023-12-29T02:35:50;11.10;99.90
40848;DHT22;26570;50.962;5.340;2023-12-29T02:39:14;11.10;99.90
40848;DHT22;26570;50.962;5.340;2023-12-29T02:42:27;11.20;99.90
40848;DHT22;26570;50.962;5.340;2023-12-29T02:45:59;10.90;99.90
40848;DHT22;26570;50.962;5.340;2023-12-29T02:49:45;11.10;99.90
40848;DHT22;26570;50.962;5.340;2023-12-29T02:52:56;11.20;99.90
40848;DHT22;26570;50.962;5.340;2023-12-29T02:56:10;11.20;99.90
40848;DHT22;26570;50.962;5.340;2023-12-29T02:59:39;11.20;99.90
40848;DHT22;26570;50.962;5.340;2023-12-29T03:02:56;11.20;99.90
40848;DHT22;26570;50.962;5.340;2023-12-29T03:05:59;11.30;99.90
40848;DHT22;26570;50.962;5.340;2023-12-29T03:12:55;11.40;99.90
40848;DHT22;26570;50.962;5.340;2023-12-29T03:16:33;11.40;99.90
40848;DHT22;26570;50.962;5.340;2023-12-29T03:23:44;11.20;99.90
40848;DHT22;26570;50.962;5.340;2023-12-29T03:27:11;11.30;99.90
40848;DHT22;26570;50.962;5.340;2023-12-29T03:30:56;11.30;99.90
40848;DHT22;26570;50.962;5.340;2023-12-29T03:34:10;11.20;99.90
40848;DHT22;26570;50.962;5.340;2023-12-29T03:51:00;11.20;99.90
40848;DHT22;26570;50.962;5.340;2023-12-29T03:54:24;11.10;99.90
40848;DHT22;26570;50.962;5.340;2023-12-29T03:57:48;11.40;99.90
40848;DHT22;26570;50.962;5.340;2023-12-29T04:01:09;11.60;99.90
40848;DHT22;26570;50.962;5.340;2023-12-29T04:04:28;11.10;99.90
40848;DHT22;26570;50.962;5.340;2023-12-29T04:08:03;10.90;99.90
40848;DHT22;26570;50.962;5.340;2023-12-29T04:14:16;11.10;99.90
40848;DHT22;26570;50.962;5.340;2023-12-29T04:17:02;11.20;99.90
40848;DHT22;26570;50.962;5.340;2023-12-29T04:23:35;10.90;99.90
40848;DHT22;26570;50.962;5.340;2023-12-29T04:27:21;10.90;99.90
40848;DHT22;26570;50.962;5.340;2023-12-29T04:30:52;10.90;99.90
40848;DHT22;26570;50.962;5.340;2023-12-29T04:40:55;11.00;99.90
40848;DHT22;26570;50.962;5.340;2023-12-29T04:44:18;11.00;99.90
40848;DHT22;26570;50.962;5.340;2023-12-29T04:48:24;10.90;99.90
40848;DHT22;26570;50.962;5.340;2023-12-29T04:55:25;10.60;99.90
40848;DHT22;26570;50.962;5.340;2023-12-29T04:58:24;11.00;99.90
40848;DHT22;26570;50.962;5.340;2023-12-29T05:01:55;10.80;99.90
40848;DHT22;26570;50.962;5.340;2023-12-29T05:05:12;10.80;99.90
40848;DHT22;26570;50.962;5.340;2023-12-29T05:08:11;10.60;99.90
40848;DHT22;26570;50.962;5.340;2023-12-29T05:11:32;10.80;99.90
40848;DHT22;26570;50.962;5.340;2023-12-29T05:14:37;10.90;99.90
40848;DHT22;26570;50.962;5.340;2023-12-29T05:17:35;11.20;99.90
40848;DHT22;26570;50.962;5.340;2023-12-29T05:23:34;10.80;99.90
40848;DHT22;26570;50.962;5.340;2023-12-29T05:26:44;10.90;99.90
40848;DHT22;26570;50.962;5.340;2023-12-29T05:30:03;10.90;99.90
40848;DHT22;26570;50.962;5.340;2023-12-29T05:32:53;11.00;99.90
40848;DHT22;26570;50.962;5.340;2023-12-29T05:35:53;10.80;99.90
40848;DHT22;26570;50.962;5.340;2023-12-29T05:42:56;11.00;99.90
40848;DHT22;26570;50.962;5.340;2023-12-29T05:46:30;11.00;99.90
40848;DHT22;26570;50.962;5.340;2023-12-29T05:50:02;11.10;99.90
40848;DHT22;26570;50.962;5.340;2023-12-29T06:00:41;11.20;99.90
40848;DHT22;26570;50.962;5.340;2023-12-29T06:03:55;11.30;99.90
40848;DHT22;26570;50.962;5.340;2023-12-29T06:27:58;11.30;99.90
40848;DHT22;26570;50.962;5.340;2023-12-29T06:31:27;11.10;99.90
40848;DHT22;26570;50.962;5.340;2023-12-29T06:35:05;11.20;99.90
40848;DHT22;26570;50.962;5.340;2023-12-29T06:38:05;11.30;99.90
40848;DHT22;26570;50.962;5.340;2023-12-29T06:41:27;11.20;99.90
40848;DHT22;26570;50.962;5.340;2023-12-29T06:44:26;11.30;99.90
40848;DHT22;26570;50.962;5.340;2023-12-29T06:54:16;11.00;99.90
40848;DHT22;26570;50.962;5.340;2023-12-29T07:01:47;10.80;99.90
40848;DHT22;26570;50.962;5.340;2023-12-29T07:04:55;10.80;99.90
40848;DHT22;26570;50.962;5.340;2023-12-29T07:12:54;10.60;99.90
40848;DHT22;26570;50.962;5.340;2023-12-29T07:16:34;10.50;99.90
40848;DHT22;26570;50.962;5.340;2023-12-29T07:20:42;10.50;99.90
40848;DHT22;26570;50.962;5.340;2023-12-29T07:24:25;10.30;99.90
40848;DHT22;26570;50.962;5.340;2023-12-29T07:27:57;10.30;99.90
40848;DHT22;26570;50.962;5.340;2023-12-29T07:31:07;10.30;99.90
40848;DHT22;26570;50.962;5.340;2023-12-29T07:34:37;10.20;99.90
40848;DHT22;26570;50.962;5.340;2023-12-29T07:37:59;10.30;99.90
40848;DHT22;26570;50.962;5.340;2023-12-29T07:41:41;10.30;99.90
40848;DHT22;26570;50.962;5.340;2023-12-29T07:45:39;10.20;99.90
40848;DHT22;26570;50.962;5.340;2023-12-29T07:49:11;10.30;99.90
40848;DHT22;26570;50.962;5.340;2023-12-29T07:53:06;10.10;99.90
40848;DHT22;26570;50.962;5.340;2023-12-29T07:56:35;10.20;99.90
40848;DHT22;26570;50.962;5.340;2023-12-29T07:59:54;10.00;99.90
40848;DHT22;26570;50.962;5.340;2023-12-29T08:03:17;10.40;99.90
40848;DHT22;26570;50.962;5.340;2023-12-29T08:18:52;10.30;99.90
40848;DHT22;26570;50.962;5.340;2023-12-29T08:22:22;10.40;99.90
40848;DHT22;26570;50.962;5.340;2023-12-29T08:32:53;10.60;99.90
40848;DHT22;26570;50.962;5.340;2023-12-29T08:44:01;10.60;99.90
40848;DHT22;26570;50.962;5.340;2023-12-29T08:47:23;10.50;99.90
40848;DHT22;26570;50.962;5.340;2023-12-29T08:50:45;10.10;99.90
40848;DHT22;26570;50.962;5.340;2023-12-29T08:57:40;9.90;99.90
40848;DHT22;26570;50.962;5.340;2023-12-29T09:01:08;10.40;99.90
40848;DHT22;26570;50.962;5.340;2023-12-29T09:04:21;10.50;99.90
40848;DHT22;26570;50.962;5.340;2023-12-29T09:07:34;10.60;99.90
40848;DHT22;26570;50.962;5.340;2023-12-29T09:17:12;10.70;99.90
40848;DHT22;26570;50.962;5.340;2023-12-29T09:20:31;10.80;99.90
40848;DHT22;26570;50.962;5.340;2023-12-29T09:23:52;11.60;99.90
40848;DHT22;26570;50.962;5.340;2023-12-29T09:27:45;10.80;99.90
40848;DHT22;26570;50.962;5.340;2023-12-29T09:43:27;11.00;99.90
40848;DHT22;26570;50.962;5.340;2023-12-29T09:58:43;10.90;99.90
40848;DHT22;26570;50.962;5.340;2023-12-29T10:02:38;10.90;99.90
40848;DHT22;26570;50.962;5.340;2023-12-29T10:09:46;10.70;99.90
40848;DHT22;26570;50.962;5.340;2023-12-29T10:24:41;11.30;99.90
40848;DHT22;26570;50.962;5.340;2023-12-29T10:27:44;11.30;99.90
40848;DHT22;26570;50.962;5.340;2023-12-29T10:31:24;11.10;99.90
40848;DHT22;26570;50.962;5.340;2023-12-29T10:34:44;11.60;99.90
40848;DHT22;26570;50.962;5.340;2023-12-29T10:38:40;12.00;99.90
40848;DHT22;26570;50.962;5.340;2023-12-29T10:42:02;11.40;99.90
40848;DHT22;26570;50.962;5.340;2023-12-29T10:45:14;11.40;99.90
40848;DHT22;26570;50.962;5.340;2023-12-29T10:48:22;11.40;99.90
40848;DHT22;26570;50.962;5.340;2023-12-29T10:51:34;11.50;99.90
40848;DHT22;26570;50.962;5.340;2023-12-29T10:54:48;11.40;99.90
40848;DHT22;26570;50.962;5.340;2023-12-29T11:05:42;11.80;99.90
40848;DHT22;26570;50.962;5.340;2023-12-29T11:09:01;11.10;99.90
40848;DHT22;26570;50.962;5.340;2023-12-29T11:11:42;11.30;99.90
40848;DHT22;26570;50.962;5.340;2023-12-29T11:15:15;11.40;99.90
40848;DHT22;26570;50.962;5.340;2023-12-29T11:22:07;11.50;99.90
40848;DHT22;26570;50.962;5.340;2023-12-29T11:28:46;11.50;99.90
40848;DHT22;26570;50.962;5.340;2023-12-29T11:32:38;11.50;99.90
40848;DHT22;26570;50.962;5.340;2023-12-29T11:36:27;11.40;99.90
40848;DHT22;26570;50.962;5.340;2023-12-29T11:42:38;11.20;99.90
40848;DHT22;26570;50.962;5.340;2023-12-29T11:50:18;11.30;99.90
40848;DHT22;26570;50.962;5.340;2023-12-29T11:53:32;11.20;99.90
40848;DHT22;26570;50.962;5.340;2023-12-29T11:57:16;11.30;99.90
40848;DHT22;26570;50.962;5.340;2023-12-29T12:05:00;12.20;99.90
40848;DHT22;26570;50.962;5.340;2023-12-29T12:08:13;12.50;99.90
40848;DHT22;26570;50.962;5.340;2023-12-29T12:18:47;11.60;99.90
40848;DHT22;26570;50.962;5.340;2023-12-29T12:22:13;11.60;99.90
40848;DHT22;26570;50.962;5.340;2023-12-29T12:25:40;12.40;99.90
40848;DHT22;26570;50.962;5.340;2023-12-29T12:32:16;11.50;99.90
40848;DHT22;26570;50.962;5.340;2023-12-29T12:36:22;11.60;99.90
40848;DHT22;26570;50.962;5.340;2023-12-29T12:39:43;10.90;99.90
40848;DHT22;26570;50.962;5.340;2023-12-29T12:42:56;11.60;99.90
40848;DHT22;26570;50.962;5.340;2023-12-29T12:50:27;11.40;99.90
40848;DHT22;26570;50.962;5.340;2023-12-29T12:54:00;11.40;99.90
40848;DHT22;26570;50.962;5.340;2023-12-29T12:57:14;11.40;99.90
40848;DHT22;26570;50.962;5.340;2023-12-29T13:01:04;11.20;99.90
40848;DHT22;26570;50.962;5.340;2023-12-29T13:09:10;12.00;99.90
40848;DHT22;26570;50.962;5.340;2023-12-29T13:12:34;11.10;99.90
40848;DHT22;26570;50.962;5.340;2023-12-29T13:16:13;11.20;99.90
40848;DHT22;26570;50.962;5.340;2023-12-29T13:19:27;11.10;99.90
40848;DHT22;26570;50.962;5.340;2023-12-29T13:22:49;11.30;99.90
40848;DHT22;26570;50.962;5.340;2023-12-29T13:26:26;11.20;99.90
40848;DHT22;26570;50.962;5.340;2023-12-29T13:37:16;11.40;99.90
40848;DHT22;26570;50.962;5.340;2023-12-29T13:43:53;11.30;99.90
40848;DHT22;26570;50.962;5.340;2023-12-29T13:50:26;11.10;99.90
40848;DHT22;26570;50.962;5.340;2023-12-29T13:58:14;11.10;99.90
40848;DHT22;26570;50.962;5.340;2023-12-29T14:01:11;11.10;99.90
40848;DHT22;26570;50.962;5.340;2023-12-29T14:04:58;10.70;99.90
40848;DHT22;26570;50.962;5.340;2023-12-29T14:08:57;11.10;99.90
40848;DHT22;26570;50.962;5.340;2023-12-29T14:12:41;11.00;99.90
40848;DHT22;26570;50.962;5.340;2023-12-29T14:16:25;11.10;99.90
40848;DHT22;26570;50.962;5.340;2023-12-29T14:19:46;10.90;99.90
40848;DHT22;26570;50.962;5.340;2023-12-29T14:29:56;11.30;99.90
40848;DHT22;26570;50.962;5.340;2023-12-29T14:32:54;11.20;99.90
40848;DHT22;26570;50.962;5.340;2023-12-29T14:36:33;12.10;99.90
40848;DHT22;26570;50.962;5.340;2023-12-29T14:40:10;11.70;99.90
40848;DHT22;26570;50.962;5.340;2023-12-29T14:43:36;11.10;99.90
40848;DHT22;26570;50.962;5.340;2023-12-29T14:47:15;11.10;99.90
40848;DHT22;26570;50.962;5.340;2023-12-29T14:54:27;11.30;99.90
40848;DHT22;26570;50.962;5.340;2023-12-29T14:57:36;11.20;99.90
40848;DHT22;26570;50.962;5.340;2023-12-29T15:00:36;11.00;99.90
40848;DHT22;26570;50.962;5.340;2023-12-29T15:03:57;11.00;99.90
40848;DHT22;26570;50.962;5.340;2023-12-29T15:07:17;11.10;99.90
40848;DHT22;26570;50.962;5.340;2023-12-29T15:10:13;11.10;99.90
40848;DHT22;26570;50.962;5.340;2023-12-29T15:16:41;11.00;99.90
40848;DHT22;26570;50.962;5.340;2023-12-29T15:19:36;11.00;99.90
40848;DHT22;26570;50.962;5.340;2023-12-29T15:22:59;11.00;99.90
40848;DHT22;26570;50.962;5.340;2023-12-29T15:26:37;11.00;99.90
40848;DHT22;26570;50.962;5.340;2023-12-29T15:30:02;11.00;99.90
40848;DHT22;26570;50.962;5.340;2023-12-29T15:33:26;11.10;99.90
40848;DHT22;26570;50.962;5.340;2023-12-29T15:39:52;11.00;99.90
40848;DHT22;26570;50.962;5.340;2023-12-29T15:46:53;11.10;99.90
40848;DHT22;26570;50.962;5.340;2023-12-29T15:50:03;11.00;99.90
40848;DHT22;26570;50.962;5.340;2023-12-29T15:53:32;11.00;99.90
40848;DHT22;26570;50.962;5.340;2023-12-29T15:56:54;11.10;99.90
40848;DHT22;26570;50.962;5.340;2023-12-29T16:00:32;11.30;99.90
40848;DHT22;26570;50.962;5.340;2023-12-29T16:04:28;11.10;99.90
40848;DHT22;26570;50.962;5.340;2023-12-29T16:14:30;11.00;99.90
40848;DHT22;26570;50.962;5.340;2023-12-29T16:21:14;11.10;99.90
40848;DHT22;26570;50.962;5.340;2023-12-29T16:25:27;11.00;99.90
40848;DHT22;26570;50.962;5.340;2023-12-29T16:29:05;11.10;99.90
40848;DHT22;26570;50.962;5.340;2023-12-29T16:37:04;11.00;99.90
40848;DHT22;26570;50.962;5.340;2023-12-29T16:40:41;10.80;99.90
40848;DHT22;26570;50.962;5.340;2023-12-29T16:48:06;10.90;99.90
40848;DHT22;26570;50.962;5.340;2023-12-29T16:51:25;11.00;99.90
40848;DHT22;26570;50.962;5.340;2023-12-29T16:58:46;10.90;99.90
40848;DHT22;26570;50.962;5.340;2023-12-29T17:01:48;11.00;99.90
40848;DHT22;26570;50.962;5.340;2023-12-29T17:05:55;10.80;99.90
40848;DHT22;26570;50.962;5.340;2023-12-29T17:09:07;10.70;99.90
40848;DHT22;26570;50.962;5.340;2023-12-29T17:12:54;10.30;99.90
40848;DHT22;26570;50.962;5.340;2023-12-29T17:16:25;10.10;99.90
40848;DHT22;26570;50.962;5.340;2023-12-29T17:20:03;10.50;99.90
40848;DHT22;26570;50.962;5.340;2023-12-29T17:23:58;10.50;99.90
40848;DHT22;26570;50.962;5.340;2023-12-29T17:32:04;10.80;99.90
40848;DHT22;26570;50.962;5.340;2023-12-29T17:35:37;10.90;99.90
40848;DHT22;26570;50.962;5.340;2023-12-29T17:38:54;11.00;99.90
40848;DHT22;26570;50.962;5.340;2023-12-29T17:41:52;11.00;99.90
40848;DHT22;26570;50.962;5.340;2023-12-29T17:45:27;11.40;99.90
40848;DHT22;26570;50.962;5.340;2023-12-29T17:57:02;11.00;99.90
40848;DHT22;26570;50.962;5.340;2023-12-29T18:00:31;11.00;99.90
40848;DHT22;26570;50.962;5.340;2023-12-29T18:04:17;11.00;99.90
40848;DHT22;26570;50.962;5.340;2023-12-29T18:08:30;11.10;99.90
40848;DHT22;26570;50.962;5.340;2023-12-29T18:18:54;11.00;99.90
40848;DHT22;26570;50.962;5.340;2023-12-29T18:26:49;10.80;99.90
40848;DHT22;26570;50.962;5.340;2023-12-29T18:41:50;10.70;99.90
40848;DHT22;26570;50.962;5.340;2023-12-29T18:45:29;10.70;99.90
40848;DHT22;26570;50.962;5.340;2023-12-29T18:48:45;10.60;99.90
40848;DHT22;26570;50.962;5.340;2023-12-29T18:53:05;10.60;99.90
40848;DHT22;26570;50.962;5.340;2023-12-29T18:56:43;10.70;99.90
40848;DHT22;26570;50.962;5.340;2023-12-29T19:04:39;10.60;99.90
40848;DHT22;26570;50.962;5.340;2023-12-29T19:10:55;11.20;99.90
40848;DHT22;26570;50.962;5.340;2023-12-29T19:17:57;10.20;99.90
40848;DHT22;26570;50.962;5.340;2023-12-29T19:29:25;10.90;99.90
40848;DHT22;26570;50.962;5.340;2023-12-29T19:32:56;10.40;99.90
40848;DHT22;26570;50.962;5.340;2023-12-29T19:36:10;10.80;99.90
40848;DHT22;26570;50.962;5.340;2023-12-29T19:39:14;10.70;99.90
40848;DHT22;26570;50.962;5.340;2023-12-29T19:42:53;10.70;99.90
40848;DHT22;26570;50.962;5.340;2023-12-29T19:50:29;10.60;99.90
40848;DHT22;26570;50.962;5.340;2023-12-29T19:57:49;10.50;99.90
40848;DHT22;26570;50.962;5.340;2023-12-29T20:12:18;10.40;99.90
40848;DHT22;26570;50.962;5.340;2023-12-29T20:29:17;10.30;99.90
40848;DHT22;26570;50.962;5.340;2023-12-29T20:36:20;10.10;99.90
40848;DHT22;26570;50.962;5.340;2023-12-29T20:39:40;10.10;99.90
40848;DHT22;26570;50.962;5.340;2023-12-29T20:50:24;10.70;99.90
40848;DHT22;26570;50.962;5.340;2023-12-29T20:54:06;10.50;99.90
40848;DHT22;26570;50.962;5.340;2023-12-29T20:58:11;10.50;99.90
40848;DHT22;26570;50.962;5.340;2023-12-29T21:01:50;10.40;99.90
40848;DHT22;26570;50.962;5.340;2023-12-29T21:04:53;10.50;99.90
40848;DHT22;26570;50.962;5.340;2023-12-29T21:14:53;10.30;99.90
40848;DHT22;26570;50.962;5.340;2023-12-29T21:18:40;10.30;99.90
40848;DHT22;26570;50.962;5.340;2023-12-29T21:30:03;9.90;99.90
40848;DHT22;26570;50.962;5.340;2023-12-29T21:37:57;10.00;99.90
40848;DHT22;26570;50.962;5.340;2023-12-29T21:45:14;9.80;99.90
40848;DHT22;26570;50.962;5.340;2023-12-29T21:52:27;9.50;99.90
40848;DHT22;26570;50.962;5.340;2023-12-29T21:55:41;9.50;99.90
40848;DHT22;26570;50.962;5.340;2023-12-29T21:59:14;9.60;99.90
40848;DHT22;26570;50.962;5.340;2023-12-29T22:02:38;9.70;99.90
40848;DHT22;26570;50.962;5.340;2023-12-29T22:06:17;9.60;99.90
40848;DHT22;26570;50.962;5.340;2023-12-29T22:09:40;9.20;99.90
40848;DHT22;26570;50.962;5.340;2023-12-29T22:12:40;9.60;99.90
40848;DHT22;26570;50.962;5.340;2023-12-29T22:16:21;9.50;99.90
40848;DHT22;26570;50.962;5.340;2023-12-29T22:23:37;9.70;99.90
40848;DHT22;26570;50.962;5.340;2023-12-29T22:30:52;9.40;99.90
40848;DHT22;26570;50.962;5.340;2023-12-29T22:38:45;9.40;99.90
40848;DHT22;26570;50.962;5.340;2023-12-29T22:46:12;9.50;99.90
40848;DHT22;26570;50.962;5.340;2023-12-29T22:49:30;9.50;99.90
40848;DHT22;26570;50.962;5.340;2023-12-29T22:53:16;9.10;99.90
40848;DHT22;26570;50.962;5.340;2023-12-29T22:57:05;9.60;99.90
40848;DHT22;26570;50.962;5.340;2023-12-29T23:00:35;9.70;99.90
40848;DHT22;26570;50.962;5.340;2023-12-29T23:04:30;9.60;99.90
40848;DHT22;26570;50.962;5.340;2023-12-29T23:08:02;9.70;99.90
40848;DHT22;26570;50.962;5.340;2023-12-29T23:11:46;9.60;99.90
40848;DHT22;26570;50.962;5.340;2023-12-29T23:15:13;9.80;99.90
40848;DHT22;26570;50.962;5.340;2023-12-29T23:18:52;9.60;99.90
40848;DHT22;26570;50.962;5.340;2023-12-29T23:30:07;9.60;99.90
40848;DHT22;26570;50.962;5.340;2023-12-29T23:33:56;9.70;99.90
40848;DHT22;26570;50.962;5.340;2023-12-29T23:37:13;9.80;99.90
40848;DHT22;26570;50.962;5.340;2023-12-29T23:40:41;9.60;99.90
40848;DHT22;26570;50.962;5.340;2023-12-29T23:47:50;9.60;99.90
40848;DHT22;26570;50.962;5.340;2023-12-29T23:51:25;9.60;99.90
